Time;durP1;ratioP1;P1;durP2;ratioP2;P2;SDS_P1;SDS_P2;PMS_P1;PMS_P2;Temp;Humidity;BMP_temperature;BMP_pressure;BME280_temperature;BME280_humidity;BME280_pressure;Samples;Min_cycle;Max_cycle;Signal;HPM_P1;HPM_P2
2023/07/12 00:01:34;;;;;;;7.93;5.25;;;19.30;99.90;;;;;;4179488;28;20122;-61
2023/07/12 00:03:36;;;;;;;8.55;5.82;;;19.20;99.90;;;;;;4178494;28;20823;-61
2023/07/12 00:05:37;;;;;;;7.70;6.15;;;19.20;99.90;;;;;;4178761;28;20036;-61
2023/07/12 00:07:38;;;;;;;8.32;5.82;;;19.20;99.90;;;;;;4160026;28;20107;-62
2023/07/12 00:09:39;;;;;;;7.38;5.50;;;19.10;99.90;;;;;;4178607;28;20086;-63
2023/07/12 00:11:41;;;;;;;6.85;5.50;;;19.10;99.90;;;;;;4177900;28;20075;-62
2023/07/12 00:13:43;;;;;;;8.48;5.88;;;19.00;99.90;;;;;;4178146;28;20041;-63
2023/07/12 00:15:46;;;;;;;8.02;5.78;;;19.00;99.90;;;;;;4178160;28;20032;-62
2023/07/12 00:17:48;;;;;;;7.47;5.97;;;19.00;99.90;;;;;;4177485;28;20033;-61
2023/07/12 00:19:50;;;;;;;8.10;5.80;;;18.90;99.90;;;;;;4178099;28;20446;-62
2023/07/12 00:21:51;;;;;;;7.18;5.78;;;18.90;99.90;;;;;;4158953;28;20049;-63
2023/07/12 00:23:54;;;;;;;9.02;6.18;;;18.90;99.90;;;;;;4178542;28;20079;-64
2023/07/12 00:25:55;;;;;;;7.18;5.38;;;18.90;99.90;;;;;;4177291;28;20025;-61
2023/07/12 00:27:56;;;;;;;8.30;5.10;;;18.90;99.90;;;;;;4177934;28;20071;-62
2023/07/12 00:29:57;;;;;;;8.88;5.88;;;18.90;99.90;;;;;;4177542;28;20545;-63
2023/07/12 00:31:58;;;;;;;6.68;5.20;;;19.00;99.90;;;;;;4178261;28;20079;-61
2023/07/12 00:34:00;;;;;;;8.23;5.40;;;19.00;99.90;;;;;;4177835;28;20119;-61
2023/07/12 00:36:01;;;;;;;6.78;5.22;;;19.00;99.90;;;;;;4178775;28;20029;-62
2023/07/12 00:38:02;;;;;;;7.07;5.20;;;18.90;99.90;;;;;;4176172;28;20049;-62
2023/07/12 00:40:19;;;;;;;6.95;5.32;;;18.90;99.90;;;;;;4177990;28;20062;-62
2023/07/12 00:42:33;;;;;;;6.00;4.85;;;18.90;99.90;;;;;;4176949;28;20384;-61
2023/07/12 00:44:46;;;;;;;7.38;5.60;;;18.80;99.90;;;;;;4178269;28;20032;-67
2023/07/12 00:46:53;;;;;;;6.45;5.07;;;18.80;99.90;;;;;;4177038;28;20040;-62
2023/07/12 00:48:54;;;;;;;7.82;5.45;;;18.80;99.90;;;;;;4160240;28;20045;-61
2023/07/12 00:50:55;;;;;;;8.02;5.68;;;18.70;99.90;;;;;;4177237;28;20041;-61
2023/07/12 00:52:56;;;;;;;6.78;4.35;;;18.70;99.90;;;;;;4177667;28;20033;-63
2023/07/12 00:55:01;;;;;;;7.30;5.30;;;18.60;99.90;;;;;;4176943;28;20041;-70
2023/07/12 00:57:03;;;;;;;8.25;5.28;;;18.60;99.90;;;;;;4159782;28;20080;-61
2023/07/12 00:59:12;;;;;;;7.07;5.22;;;18.60;99.90;;;;;;4176044;28;20029;-61
2023/07/12 01:01:14;;;;;;;8.18;5.75;;;18.60;99.90;;;;;;4177188;28;20090;-63
2023/07/12 01:03:17;;;;;;;8.10;4.88;;;18.60;99.90;;;;;;4177397;28;20032;-65
2023/07/12 01:05:19;;;;;;;7.18;5.60;;;18.70;99.90;;;;;;4177635;28;20435;-62
2023/07/12 01:07:22;;;;;;;9.25;5.55;;;18.70;99.90;;;;;;4177651;28;20432;-62
2023/07/12 01:09:25;;;;;;;6.68;5.25;;;18.70;99.90;;;;;;4176834;28;20481;-63
2023/07/12 01:11:28;;;;;;;7.75;5.38;;;18.70;99.90;;;;;;4177904;28;20082;-61
2023/07/12 01:13:30;;;;;;;5.50;4.93;;;18.60;99.90;;;;;;4176883;28;20024;-61
2023/07/12 01:15:32;;;;;;;6.93;4.80;;;18.60;99.90;;;;;;4178022;28;20029;-61
2023/07/12 01:17:34;;;;;;;8.27;5.28;;;18.60;99.90;;;;;;4175639;28;20477;-62
2023/07/12 01:19:37;;;;;;;7.97;5.13;;;18.50;99.90;;;;;;4177231;28;20029;-63
2023/07/12 01:21:46;;;;;;;6.03;4.90;;;18.50;99.90;;;;;;4176776;28;20021;-63
2023/07/12 01:23:47;;;;;;;6.15;4.95;;;18.50;99.90;;;;;;4177109;28;20366;-62
2023/07/12 01:25:49;;;;;;;8.40;6.20;;;18.50;99.90;;;;;;4175827;28;20033;-62
2023/07/12 01:27:50;;;;;;;5.78;4.72;;;18.40;99.90;;;;;;4177028;28;20049;-62
2023/07/12 01:29:52;;;;;;;5.78;4.57;;;18.50;99.90;;;;;;4175676;28;20098;-61
2023/07/12 01:31:53;;;;;;;5.78;5.15;;;18.50;99.90;;;;;;4177431;28;20102;-69
2023/07/12 01:33:55;;;;;;;8.07;4.97;;;18.40;99.90;;;;;;4176853;28;20124;-62
2023/07/12 01:35:56;;;;;;;7.22;5.00;;;18.50;99.90;;;;;;4177677;28;20095;-62
2023/07/12 01:37:57;;;;;;;8.27;5.03;;;18.50;99.90;;;;;;4158390;28;20084;-61
2023/07/12 01:39:59;;;;;;;5.28;4.70;;;18.50;99.90;;;;;;4176810;28;20033;-62
2023/07/12 01:42:00;;;;;;;7.47;4.63;;;18.60;99.90;;;;;;4158986;28;20037;-61
2023/07/12 01:44:02;;;;;;;7.13;5.15;;;18.50;99.90;;;;;;4176720;28;20385;-63
2023/07/12 01:46:04;;;;;;;5.55;4.72;;;18.60;99.90;;;;;;4177371;28;20071;-61
2023/07/12 01:48:05;;;;;;;7.88;5.13;;;18.60;99.90;;;;;;4176397;28;20781;-62
2023/07/12 01:50:07;;;;;;;6.03;4.57;;;18.50;99.90;;;;;;4177188;28;20041;-62
2023/07/12 01:52:08;;;;;;;6.70;4.80;;;18.50;99.90;;;;;;4176017;28;20095;-62
2023/07/12 01:54:09;;;;;;;6.35;4.63;;;18.50;99.90;;;;;;4177489;28;20017;-63
2023/07/12 01:56:12;;;;;;;7.55;5.18;;;18.40;99.90;;;;;;4176451;28;20021;-62
2023/07/12 01:58:13;;;;;;;7.75;4.85;;;18.40;99.90;;;;;;4176962;28;20041;-64
2023/07/12 02:00:15;;;;;;;8.70;5.00;;;18.40;99.90;;;;;;4176282;28;20090;-61
2023/07/12 02:02:16;;;;;;;9.90;7.63;;;18.40;99.90;;;;;;4177136;28;20036;-63
2023/07/12 02:04:17;;;;;;;11.18;8.27;;;18.40;99.90;;;;;;4176882;28;20177;-63
2023/07/12 02:06:20;;;;;;;7.97;4.90;;;18.40;99.90;;;;;;4176977;28;20037;-63
2023/07/12 02:08:21;;;;;;;6.38;4.60;;;18.40;99.90;;;;;;4176394;28;20083;-62
2023/07/12 02:10:23;;;;;;;8.85;5.10;;;18.40;99.90;;;;;;4177337;28;20021;-62
2023/07/12 02:12:24;;;;;;;8.00;4.90;;;18.30;99.90;;;;;;4179947;28;20044;-61
2023/07/12 02:14:25;;;;;;;6.03;4.60;;;18.40;99.90;;;;;;4180126;28;20033;-62
2023/07/12 02:16:27;;;;;;;6.63;4.68;;;18.40;99.90;;;;;;4180540;28;20366;-62
2023/07/12 02:18:28;;;;;;;7.20;4.50;;;18.30;99.90;;;;;;4178839;28;20049;-62
2023/07/12 02:20:29;;;;;;;10.32;5.28;;;18.40;99.90;;;;;;4180177;28;20033;-62
2023/07/12 02:22:34;;;;;;;7.40;4.80;;;18.30;99.90;;;;;;4160732;28;20808;-62
2023/07/12 02:24:35;;;;;;;8.05;4.95;;;18.30;99.90;;;;;;4180052;28;20427;-63
2023/07/12 02:26:36;;;;;;;8.75;4.53;;;18.30;99.90;;;;;;4177751;28;20045;-61
2023/07/12 02:28:38;;;;;;;7.72;4.72;;;18.30;99.90;;;;;;4180071;28;20028;-62
2023/07/12 02:30:42;;;;;;;7.35;4.40;;;18.40;99.90;;;;;;4179014;28;20106;-62
2023/07/12 02:32:44;;;;;;;8.98;4.80;;;18.40;99.90;;;;;;4179644;28;20527;-62
2023/07/12 02:34:45;;;;;;;9.55;4.70;;;18.40;99.90;;;;;;4179992;28;20078;-61
2023/07/12 02:36:46;;;;;;;10.57;6.95;;;18.40;99.90;;;;;;4180212;28;20079;-62
2023/07/12 02:38:48;;;;;;;8.95;5.70;;;18.40;99.90;;;;;;4179402;28;20063;-61
2023/07/12 02:40:49;;;;;;;6.80;4.90;;;18.40;99.90;;;;;;4180207;28;20678;-62
2023/07/12 02:42:51;;;;;;;6.57;4.68;;;18.30;99.90;;;;;;4179683;28;20087;-61
2023/07/12 02:44:52;;;;;;;6.43;4.78;;;18.30;99.90;;;;;;4179747;28;20033;-61
2023/07/12 02:46:53;;;;;;;4.93;4.05;;;18.30;99.90;;;;;;4179304;28;20183;-64
2023/07/12 02:48:54;;;;;;;7.38;5.18;;;18.30;99.90;;;;;;4178944;28;20045;-62
2023/07/12 02:50:55;;;;;;;8.00;5.20;;;18.30;99.90;;;;;;4180219;28;20075;-63
2023/07/12 02:52:56;;;;;;;7.03;4.55;;;18.30;99.90;;;;;;4178625;28;20056;-62
2023/07/12 02:54:58;;;;;;;6.82;4.50;;;18.30;99.90;;;;;;4180249;28;20049;-62
2023/07/12 02:57:00;;;;;;;5.43;4.10;;;18.30;99.90;;;;;;4178892;28;20052;-62
2023/07/12 02:59:01;;;;;;;6.57;5.18;;;18.30;99.90;;;;;;4180243;28;20029;-62
2023/07/12 03:01:02;;;;;;;8.10;5.00;;;18.40;99.90;;;;;;4178789;28;20453;-61
2023/07/12 03:03:03;;;;;;;6.88;4.68;;;18.40;99.90;;;;;;4180115;28;20093;-62
2023/07/12 03:05:08;;;;;;;11.35;5.55;;;18.50;99.90;;;;;;4178795;28;20091;-62
2023/07/12 03:07:09;;;;;;;11.00;6.43;;;18.60;99.90;;;;;;4180236;28;20108;-63
2023/07/12 03:09:11;;;;;;;10.55;6.05;;;18.70;99.90;;;;;;4179101;28;20059;-63
2023/07/12 03:11:14;;;;;;;12.35;5.95;;;18.70;99.90;;;;;;4179614;28;20044;-63
2023/07/12 03:13:15;;;;;;;12.52;6.88;;;18.80;99.90;;;;;;4178480;28;20083;-62
2023/07/12 03:15:17;;;;;;;9.23;6.22;;;18.90;99.90;;;;;;4179631;28;20428;-62
2023/07/12 03:17:18;;;;;;;13.80;6.03;;;19.10;99.90;;;;;;4179159;28;20075;-65
2023/07/12 03:19:19;;;;;;;13.68;6.53;;;19.30;99.90;;;;;;4179119;28;20067;-62
2023/07/12 03:21:20;;;;;;;14.40;6.82;;;19.30;99.90;;;;;;4179531;28;20071;-64
2023/07/12 03:23:21;;;;;;;21.33;6.80;;;19.20;99.90;;;;;;4177676;28;20361;-62
2023/07/12 03:25:23;;;;;;;12.27;6.18;;;19.20;99.90;;;;;;4179683;28;20032;-61
2023/07/12 03:27:24;;;;;;;21.77;6.22;;;19.30;99.90;;;;;;4178625;28;20049;-62
2023/07/12 03:29:25;;;;;;;21.67;6.90;;;19.40;99.90;;;;;;4179738;28;20033;-62
2023/07/12 03:31:28;;;;;;;13.65;6.57;;;19.60;99.90;;;;;;4177173;28;20040;-62
2023/07/12 03:33:30;;;;;;;8.23;5.70;;;19.70;99.90;;;;;;4167453;28;20190;-72
2023/07/12 03:35:31;;;;;;;10.57;6.18;;;20.00;99.90;;;;;;4178124;28;20103;-62
2023/07/12 03:37:32;;;;;;;9.27;5.55;;;20.10;99.90;;;;;;4179655;28;20095;-62
2023/07/12 03:39:33;;;;;;;9.38;5.53;;;20.10;99.90;;;;;;4178049;28;20032;-63
2023/07/12 03:41:35;;;;;;;9.80;5.63;;;20.00;99.90;;;;;;4160306;28;20084;-62
2023/07/12 03:43:36;;;;;;;10.88;5.85;;;20.10;99.90;;;;;;4177516;28;20036;-62
2023/07/12 03:45:38;;;;;;;9.43;6.03;;;20.30;99.90;;;;;;4178766;28;20036;-62
2023/07/12 03:47:39;;;;;;;13.35;6.50;;;20.20;99.90;;;;;;4178499;28;20492;-69
2023/07/12 03:49:40;;;;;;;10.10;6.15;;;20.00;99.90;;;;;;4178522;28;20426;-62
2023/07/12 03:51:42;;;;;;;12.48;6.70;;;19.70;99.90;;;;;;4177994;28;20063;-61
2023/07/12 03:53:43;;;;;;;11.77;6.57;;;19.70;99.90;;;;;;4177731;28;20082;-63
2023/07/12 03:55:46;;;;;;;10.38;6.38;;;19.70;99.90;;;;;;4178669;28;20125;-62
2023/07/12 03:57:47;;;;;;;7.90;6.35;;;19.50;99.90;;;;;;4177391;28;20082;-61
2023/07/12 03:59:48;;;;;;;13.65;7.30;;;19.30;99.90;;;;;;4178776;28;20072;-61
2023/07/12 04:01:49;;;;;;;10.55;6.60;;;19.20;99.90;;;;;;4177288;28;20040;-62
2023/07/12 04:03:50;;;;;;;9.82;6.85;;;19.30;99.90;;;;;;4179100;28;20025;-62
2023/07/12 04:05:52;;;;;;;11.93;6.32;;;19.40;99.90;;;;;;4178446;28;20373;-63
2023/07/12 04:07:56;;;;;;;10.35;6.88;;;19.60;99.90;;;;;;4178870;28;20106;-61
2023/07/12 04:09:57;;;;;;;13.15;7.55;;;20.10;99.90;;;;;;4177523;28;20425;-63
2023/07/12 04:11:58;;;;;;;11.63;7.03;;;20.30;99.90;;;;;;4178724;28;20473;-63
2023/07/12 04:14:01;;;;;;;16.33;6.90;;;20.50;99.90;;;;;;4176740;28;20480;-62
2023/07/12 04:16:02;;;;;;;9.82;7.07;;;21.00;99.90;;;;;;4177836;28;20424;-62
2023/07/12 04:18:03;;;;;;;13.80;6.43;;;21.40;99.90;;;;;;4181794;28;20032;-61
2023/07/12 04:20:05;;;;;;;10.65;6.70;;;21.60;99.90;;;;;;4180040;28;20049;-63
2023/07/12 04:22:06;;;;;;;8.75;6.22;;;21.50;99.90;;;;;;4177719;28;20025;-59
2023/07/12 04:24:08;;;;;;;8.05;5.80;;;21.30;99.90;;;;;;4178011;28;20035;-63
2023/07/12 04:26:10;;;;;;;9.18;6.18;;;21.40;99.90;;;;;;4174626;28;20090;-63
2023/07/12 04:28:12;;;;;;;9.75;6.68;;;21.70;99.90;;;;;;4176514;28;20049;-62
2023/07/12 04:30:15;;;;;;;11.02;6.63;;;21.70;99.90;;;;;;4178680;28;20044;-62
2023/07/12 04:32:16;;;;;;;13.43;6.70;;;22.10;99.90;;;;;;4176926;28;20079;-61
2023/07/12 04:34:17;;;;;;;13.32;7.20;;;22.40;99.90;;;;;;4182339;28;20083;-62
2023/07/12 04:36:18;;;;;;;14.05;6.82;;;22.60;99.90;;;;;;4182480;28;20045;-62
2023/07/12 04:38:20;;;;;;;14.45;7.30;;;22.80;99.90;;;;;;4178223;28;20063;-62
2023/07/12 04:40:21;;;;;;;16.08;6.47;;;23.20;99.90;;;;;;4176283;28;20045;-65
2023/07/12 04:42:22;;;;;;;14.50;6.82;;;23.90;99.90;;;;;;4177595;28;20102;-63
2023/07/12 04:44:25;;;;;;;12.32;6.53;;;23.80;99.90;;;;;;4176025;28;20087;-62
2023/07/12 04:46:26;;;;;;;11.13;6.25;;;24.10;99.90;;;;;;4177370;28;20473;-63
2023/07/12 04:48:30;;;;;;;20.15;7.85;;;24.10;99.90;;;;;;4176287;28;20041;-68
2023/07/12 04:50:33;;;;;;;12.57;7.88;;;24.40;99.90;;;;;;4178343;28;20079;-62
2023/07/12 04:52:34;;;;;;;18.02;6.70;;;24.60;99.90;;;;;;4176249;28;20033;-62
2023/07/12 04:54:39;;;;;;;11.48;7.55;;;25.00;99.90;;;;;;4176300;28;20366;-62
2023/07/12 04:56:40;;;;;;;16.67;6.80;;;25.00;99.90;;;;;;4178009;28;20083;-61
2023/07/12 04:58:43;;;;;;;12.40;6.75;;;25.30;99.90;;;;;;4177434;28;20098;-61
2023/07/12 05:00:44;;;;;;;12.00;6.50;;;25.80;99.90;;;;;;4177076;28;20033;-61
2023/07/12 05:02:47;;;;;;;12.18;7.13;;;26.10;99.90;;;;;;4176408;28;20481;-61
2023/07/12 05:04:48;;;;;;;16.48;7.28;;;26.20;99.90;;;;;;4177305;28;20029;-61
2023/07/12 05:06:51;;;;;;;19.55;6.40;;;25.80;99.90;;;;;;4176663;28;20489;-63
2023/07/12 05:08:52;;;;;;;19.75;6.97;;;26.00;99.90;;;;;;4177542;28;20040;-60
2023/07/12 05:10:58;;;;;;;15.32;6.60;;;26.40;99.90;;;;;;4176161;28;20037;-61
2023/07/12 05:12:59;;;;;;;12.23;6.38;;;26.40;99.90;;;;;;4177420;28;20033;-61
2023/07/12 05:15:01;;;;;;;10.90;6.30;;;26.30;99.90;;;;;;4176140;28;20041;-61
2023/07/12 05:17:03;;;;;;;13.82;6.50;;;26.30;99.90;;;;;;4178065;28;20033;-62
2023/07/12 05:19:04;;;;;;;9.30;6.15;;;26.10;99.90;;;;;;4177149;28;20090;-61
2023/07/12 05:21:05;;;;;;;12.13;5.85;;;26.40;99.90;;;;;;4176976;28;20037;-62
2023/07/12 05:23:06;;;;;;;11.50;6.07;;;26.20;99.90;;;;;;4176227;28;20485;-60
2023/07/12 05:25:09;;;;;;;8.60;5.45;;;26.10;99.90;;;;;;4176578;28;20041;-63
2023/07/12 05:27:10;;;;;;;12.10;6.40;;;26.00;99.90;;;;;;4177237;28;20527;-60
2023/07/12 05:29:12;;;;;;;13.95;5.57;;;26.10;99.90;;;;;;4176423;28;20389;-61
2023/07/12 05:31:14;;;;;;;9.95;6.28;;;26.00;99.90;;;;;;4177620;28;20017;-61
2023/07/12 05:33:15;;;;;;;7.53;5.40;;;26.00;99.90;;;;;;4176612;28;20134;-60
2023/07/12 05:35:16;;;;;;;12.25;5.85;;;26.20;99.90;;;;;;4178241;28;20102;-60
2023/07/12 05:37:18;;;;;;;10.45;5.60;;;26.50;99.90;;;;;;4175335;28;20041;-61
2023/07/12 05:39:19;;;;;;;15.45;6.10;;;27.00;99.90;;;;;;4160003;28;20083;-60
2023/07/12 05:41:20;;;;;;;8.90;5.45;;;27.60;99.20;;;;;;4175824;28;20029;-62
2023/07/12 05:43:23;;;;;;;11.00;5.28;;;27.60;98.70;;;;;;4177941;28;20437;-61
2023/07/12 05:45:25;;;;;;;8.50;5.65;;;28.10;98.40;;;;;;4175486;28;20044;-61
2023/07/12 05:47:26;;;;;;;15.15;5.30;;;29.00;97.30;;;;;;4176797;28;20071;-61
2023/07/12 05:49:28;;;;;;;12.88;5.63;;;28.70;96.80;;;;;;4175692;28;20474;-61
2023/07/12 05:51:29;;;;;;;8.00;4.78;;;28.50;96.80;;;;;;4177603;28;20454;-60
2023/07/12 05:53:30;;;;;;;6.93;4.97;;;28.70;96.50;;;;;;4176366;28;20035;-63
2023/07/12 05:55:32;;;;;;;11.38;5.35;;;28.30;96.30;;;;;;4177419;28;20025;-61
2023/07/12 05:57:33;;;;;;;11.02;4.85;;;27.90;96.60;;;;;;4175978;28;20025;-61
2023/07/12 05:59:34;;;;;;;10.38;4.93;;;27.20;96.90;;;;;;4176540;28;20091;-60
2023/07/12 06:01:36;;;;;;;10.18;4.88;;;27.00;97.20;;;;;;4176085;28;20147;-60
2023/07/12 06:03:37;;;;;;;7.38;4.45;;;26.60;97.20;;;;;;4175607;28;20087;-60
2023/07/12 06:05:41;;;;;;;12.27;4.47;;;26.70;97.30;;;;;;4177576;28;20444;-60
2023/07/12 06:07:42;;;;;;;14.20;5.50;;;27.00;97.00;;;;;;4175294;28;20044;-61
2023/07/12 06:09:44;;;;;;;18.55;6.28;;;27.20;97.10;;;;;;4177754;28;20036;-61
2023/07/12 06:11:46;;;;;;;12.82;5.75;;;27.30;96.90;;;;;;4176382;28;20453;-60
2023/07/12 06:13:47;;;;;;;11.60;4.60;;;27.30;96.80;;;;;;4176246;28;20030;-61
2023/07/12 06:15:48;;;;;;;9.80;4.68;;;27.90;96.20;;;;;;4176145;28;20102;-61
2023/07/12 06:17:50;;;;;;;15.48;5.57;;;27.80;95.80;;;;;;4176886;28;20087;-61
2023/07/12 06:19:51;;;;;;;12.20;5.47;;;28.10;95.70;;;;;;4175531;28;20049;-60
2023/07/12 06:21:52;;;;;;;11.52;5.00;;;28.10;95.30;;;;;;4176761;28;20477;-61
2023/07/12 06:23:57;;;;;;;9.52;5.10;;;27.40;95.30;;;;;;4176297;28;20025;-61
2023/07/12 06:25:58;;;;;;;12.73;4.60;;;26.90;95.80;;;;;;4176828;28;20516;-60
2023/07/12 06:28:00;;;;;;;10.77;4.93;;;26.80;96.10;;;;;;4176180;28;20045;-60
2023/07/12 06:30:01;;;;;;;14.05;5.00;;;26.90;96.00;;;;;;4176200;28;20033;-60
2023/07/12 06:32:03;;;;;;;11.43;4.60;;;26.70;96.00;;;;;;4176888;28;20102;-61
2023/07/12 06:34:04;;;;;;;14.27;5.75;;;26.50;96.30;;;;;;4175635;28;20053;-61
2023/07/12 06:36:06;;;;;;;8.10;4.75;;;26.10;96.50;;;;;;4177425;28;20029;-61
2023/07/12 06:38:07;;;;;;;8.25;4.88;;;26.20;96.80;;;;;;4175762;28;20111;-61
2023/07/12 06:40:09;;;;;;;9.55;4.57;;;26.90;96.60;;;;;;4177322;28;20428;-61
2023/07/12 06:42:10;;;;;;;9.48;4.82;;;27.30;96.10;;;;;;4176055;28;20025;-62
2023/07/12 06:44:11;;;;;;;8.88;5.03;;;27.50;95.90;;;;;;4176522;28;20098;-61
2023/07/12 06:46:12;;;;;;;8.10;4.57;;;27.80;95.70;;;;;;4175901;28;20075;-64
2023/07/12 06:48:13;;;;;;;8.07;5.18;;;27.80;95.60;;;;;;4177002;28;20099;-61
2023/07/12 06:50:14;;;;;;;8.52;4.88;;;27.50;95.90;;;;;;4175963;28;20029;-61
2023/07/12 06:52:16;;;;;;;13.32;4.82;;;27.50;96.20;;;;;;4177011;28;20083;-61
2023/07/12 06:54:17;;;;;;;10.13;5.15;;;27.70;96.10;;;;;;4175900;28;20462;-63
2023/07/12 06:56:18;;;;;;;7.78;4.50;;;28.20;95.80;;;;;;4177169;28;20400;-61
2023/07/12 06:58:20;;;;;;;9.93;4.93;;;27.90;95.70;;;;;;4178412;28;20114;-62
2023/07/12 07:00:21;;;;;;;8.40;4.57;;;27.70;95.90;;;;;;4178813;28;20118;-61
2023/07/12 07:02:22;;;;;;;10.18;5.53;;;27.70;96.00;;;;;;4178681;28;20095;-63
2023/07/12 07:04:24;;;;;;;14.23;4.90;;;27.60;96.20;;;;;;4179456;28;20029;-61
2023/07/12 07:06:25;;;;;;;10.98;5.22;;;27.50;96.20;;;;;;4180000;28;20025;-61
2023/07/12 07:08:27;;;;;;;15.02;5.60;;;27.20;96.50;;;;;;4178297;28;20037;-61
2023/07/12 07:10:28;;;;;;;10.85;4.80;;;27.20;96.80;;;;;;4179913;28;20037;-61
2023/07/12 07:12:29;;;;;;;8.18;4.85;;;27.10;96.80;;;;;;4178256;28;20106;-60
2023/07/12 07:14:31;;;;;;;11.52;5.20;;;26.90;97.00;;;;;;4180041;28;20047;-62
2023/07/12 07:16:32;;;;;;;5.93;4.72;;;26.90;97.20;;;;;;4178123;28;20036;-61
2023/07/12 07:18:33;;;;;;;10.35;5.93;;;27.00;97.30;;;;;;4179055;28;20118;-62
2023/07/12 07:20:34;;;;;;;10.73;6.28;;;27.10;97.30;;;;;;4177743;28;20036;-61
2023/07/12 07:22:37;;;;;;;9.93;4.95;;;27.10;97.40;;;;;;4180001;28;20029;-62
2023/07/12 07:24:38;;;;;;;11.00;4.95;;;27.10;97.30;;;;;;4177109;28;20086;-61
2023/07/12 07:26:39;;;;;;;9.65;5.25;;;27.00;97.50;;;;;;4180038;28;20041;-61
2023/07/12 07:28:41;;;;;;;9.13;5.05;;;27.10;97.50;;;;;;4178661;28;20045;-61
2023/07/12 07:30:43;;;;;;;6.53;4.93;;;27.20;97.40;;;;;;4179054;28;20025;-61
2023/07/12 07:32:44;;;;;;;7.20;4.93;;;27.40;97.30;;;;;;4178720;28;20025;-61
2023/07/12 07:34:45;;;;;;;7.18;4.80;;;27.20;97.40;;;;;;4179427;28;20025;-63
2023/07/12 07:36:46;;;;;;;10.52;5.63;;;27.10;97.70;;;;;;4178619;28;20107;-63
2023/07/12 07:38:47;;;;;;;8.55;4.80;;;27.30;97.80;;;;;;4160821;28;20037;-62
2023/07/12 07:40:49;;;;;;;8.45;4.88;;;27.60;97.60;;;;;;4179474;28;20044;-61
2023/07/12 07:42:50;;;;;;;7.80;5.28;;;28.00;97.40;;;;;;4177893;28;20040;-61
2023/07/12 07:44:51;;;;;;;8.38;4.70;;;28.50;97.30;;;;;;4179337;28;20025;-62
2023/07/12 07:46:52;;;;;;;5.82;4.47;;;28.70;97.00;;;;;;4177374;28;20106;-61
2023/07/12 07:48:53;;;;;;;6.80;4.38;;;28.60;97.00;;;;;;4179326;28;20041;-63
2023/07/12 07:50:54;;;;;;;7.57;4.78;;;28.40;97.10;;;;;;4178422;28;20029;-61
2023/07/12 07:52:55;;;;;;;5.55;4.80;;;28.50;97.20;;;;;;4179719;28;20087;-62
2023/07/12 07:54:57;;;;;;;8.52;4.82;;;28.50;97.30;;;;;;4178349;28;20028;-61
2023/07/12 07:56:58;;;;;;;7.60;4.60;;;28.60;97.10;;;;;;4178625;28;20430;-61
2023/07/12 07:59:00;;;;;;;8.45;4.80;;;29.10;97.00;;;;;;4178219;28;20094;-62
2023/07/12 08:01:01;;;;;;;10.07;5.15;;;29.20;96.70;;;;;;4179017;28;20130;-61
2023/07/12 08:03:04;;;;;;;5.60;4.97;;;28.70;96.90;;;;;;4177272;28;20082;-62
2023/07/12 08:05:05;;;;;;;7.25;5.05;;;28.40;97.20;;;;;;4178635;28;20178;-60
2023/07/12 08:07:07;;;;;;;7.05;4.80;;;28.50;97.30;;;;;;4178795;28;20040;-60
2023/07/12 08:09:09;;;;;;;9.48;5.63;;;28.60;97.30;;;;;;4177532;28;20048;-61
2023/07/12 08:11:10;;;;;;;10.55;5.05;;;29.00;97.10;;;;;;4178771;28;20082;-60
2023/07/12 08:13:12;;;;;;;8.13;4.75;;;29.00;96.90;;;;;;4177873;28;20120;-60
2023/07/12 08:15:14;;;;;;;8.40;4.57;;;28.90;96.90;;;;;;4179014;28;20029;-61
2023/07/12 08:17:15;;;;;;;5.45;4.20;;;29.00;96.90;;;;;;4177594;28;20456;-64
2023/07/12 08:19:16;;;;;;;6.75;4.60;;;29.10;96.70;;;;;;4179028;28;20029;-62
2023/07/12 08:21:17;;;;;;;8.35;4.78;;;29.20;96.50;;;;;;4177655;28;20079;-64
2023/07/12 08:23:19;;;;;;;8.25;4.60;;;29.20;96.20;;;;;;4177717;28;20402;-62
2023/07/12 08:25:21;;;;;;;7.88;5.45;;;29.10;96.10;;;;;;4176422;28;20420;-64
2023/07/12 08:27:22;;;;;;;7.55;4.68;;;28.90;96.10;;;;;;4178819;28;20025;-61
2023/07/12 08:29:23;;;;;;;8.43;4.43;;;29.10;96.30;;;;;;4177480;28;20041;-65
2023/07/12 08:31:24;;;;;;;6.65;5.20;;;29.10;96.30;;;;;;4178628;28;20079;-67
2023/07/12 08:33:25;;;;;;;9.52;4.63;;;29.30;96.20;;;;;;4177358;28;20049;-61
2023/07/12 08:35:26;;;;;;;7.43;4.78;;;29.20;96.00;;;;;;4177624;28;20037;-64
2023/07/12 08:37:28;;;;;;;8.43;4.43;;;29.20;96.00;;;;;;4177037;28;20099;-60
2023/07/12 08:39:29;;;;;;;8.85;5.20;;;29.40;95.60;;;;;;4177955;28;20041;-64
2023/07/12 08:41:31;;;;;;;9.40;5.57;;;29.60;95.40;;;;;;4178333;28;20412;-69
2023/07/12 08:43:33;;;;;;;7.18;4.38;;;29.70;95.30;;;;;;4177480;28;20029;-62
2023/07/12 08:45:35;;;;;;;5.30;4.40;;;29.40;94.90;;;;;;4178555;28;20059;-67
2023/07/12 08:47:39;;;;;;;7.82;4.18;;;29.20;94.70;;;;;;4176781;28;20091;-61
2023/07/12 08:49:40;;;;;;;6.68;4.38;;;29.30;94.60;;;;;;4177403;28;20045;-61
2023/07/12 08:51:42;;;;;;;4.80;4.30;;;29.40;94.60;;;;;;4159102;28;20037;-61
2023/07/12 08:53:45;;;;;;;8.13;4.00;;;29.70;94.60;;;;;;4160521;28;20046;-62
2023/07/12 08:55:47;;;;;;;4.78;4.38;;;29.90;94.30;;;;;;4177311;28;20086;-67
2023/07/12 08:58:03;;;;;;;6.43;4.10;;;30.30;94.10;;;;;;4177760;28;20048;-62
2023/07/12 09:00:12;;;;;;;7.85;4.20;;;30.50;93.20;;;;;;4177120;28;20071;-63
2023/07/12 09:02:22;;;;;;;5.35;3.70;;;30.30;93.00;;;;;;4177227;28;20042;-62
2023/07/12 09:04:31;;;;;;;4.75;3.65;;;30.10;92.70;;;;;;4177017;28;20041;-64
2023/07/12 09:06:32;;;;;;;5.78;3.88;;;30.00;92.80;;;;;;4178679;28;20071;-61
2023/07/12 09:08:39;;;;;;;5.75;4.07;;;30.30;92.90;;;;;;4176998;28;20431;-66
2023/07/12 09:10:42;;;;;;;5.35;3.90;;;30.10;92.40;;;;;;4178244;28;20079;-66
2023/07/12 09:12:51;;;;;;;7.43;4.68;;;29.80;92.70;;;;;;4176932;28;20424;-62
2023/07/12 09:14:57;;;;;;;8.10;4.00;;;29.90;92.80;;;;;;4178154;28;20090;-67
2023/07/12 09:16:59;;;;;;;4.78;3.35;;;29.80;92.60;;;;;;4175883;28;20037;-64
2023/07/12 09:19:14;;;;;;;5.88;4.38;;;29.60;92.20;;;;;;4177403;28;20037;-65
2023/07/12 09:21:23;;;;;;;8.88;4.13;;;29.40;92.10;;;;;;4176111;28;20147;-64
2023/07/12 09:23:30;;;;;;;8.45;3.72;;;29.40;92.00;;;;;;4160431;28;20029;-64
2023/07/12 09:25:38;;;;;;;6.50;3.92;;;29.40;91.90;;;;;;4176546;28;20083;-64
2023/07/12 09:27:46;;;;;;;5.50;3.72;;;29.20;91.80;;;;;;4177692;28;20082;-65
2023/07/12 09:29:48;;;;;;;5.80;3.95;;;29.20;91.70;;;;;;4176594;28;20090;-65
2023/07/12 09:31:49;;;;;;;4.70;3.20;;;29.40;92.10;;;;;;4177341;28;20021;-62
2023/07/12 09:34:00;;;;;;;5.68;3.78;;;29.80;92.10;;;;;;4175966;28;20060;-68
2023/07/12 09:36:05;;;;;;;10.73;4.88;;;30.10;91.60;;;;;;4177538;28;20366;-63
2023/07/12 09:38:12;;;;;;;5.10;3.90;;;30.30;91.60;;;;;;4177032;28;20545;-61
2023/07/12 09:40:17;;;;;;;8.65;3.63;;;30.70;91.40;;;;;;4176312;28;20041;-61
2023/07/12 09:42:18;;;;;;;6.88;3.58;;;30.80;91.10;;;;;;4177138;28;20098;-61
2023/07/12 09:44:19;;;;;;;5.15;3.75;;;30.80;91.00;;;;;;4176176;28;20414;-62
2023/07/12 09:46:29;;;;;;;7.53;3.85;;;30.70;90.90;;;;;;4177350;28;20420;-64
2023/07/12 09:48:45;;;;;;;7.50;4.00;;;30.50;90.90;;;;;;4175424;28;20047;-61
2023/07/12 09:51:14;;;;;;;5.50;3.45;;;30.60;91.20;;;;;;4177221;28;20029;-61
2023/07/12 09:53:21;;;;;;;5.28;4.13;;;30.90;91.00;;;;;;4176877;28;20090;-61
2023/07/12 09:55:31;;;;;;;5.28;3.85;;;30.90;90.90;;;;;;4176127;28;20044;-62
2023/07/12 09:58:02;;;;;;;4.00;3.05;;;31.10;91.10;;;;;;4176123;28;20041;-62
2023/07/12 10:00:22;;;;;;;5.32;3.70;;;31.20;90.90;;;;;;4176334;28;20121;-62
2023/07/12 10:02:34;;;;;;;3.65;3.17;;;31.30;89.90;;;;;;4177553;28;20059;-61
2023/07/12 10:04:43;;;;;;;5.97;3.05;;;31.10;87.70;;;;;;4175975;28;20040;-62
2023/07/12 10:06:49;;;;;;;6.93;2.90;;;31.00;85.60;;;;;;4178022;28;20059;-61
2023/07/12 10:08:57;;;;;;;3.83;3.28;;;30.80;85.10;;;;;;4175404;28;20114;-60
2023/07/12 10:11:17;;;;;;;4.65;3.17;;;30.60;85.50;;;;;;4159098;28;20510;-60
2023/07/12 10:13:35;;;;;;;;;;;30.80;85.80;;;;;;4176787;28;20514;-60
2023/07/12 10:15:38;;;;;;;9.15;3.17;;;31.00;84.60;;;;;;4177397;28;19951;-61
2023/07/12 10:17:42;;;;;;;8.18;3.63;;;31.10;86.10;;;;;;4176147;28;20028;-60
2023/07/12 10:19:49;;;;;;;6.93;3.47;;;31.10;85.30;;;;;;4177435;28;20063;-61
2023/07/12 10:21:52;;;;;;;7.93;4.03;;;31.10;85.00;;;;;;4176430;28;20453;-62
2023/07/12 10:23:59;;;;;;;5.38;3.88;;;31.00;85.60;;;;;;4177446;28;20469;-62
2023/07/12 10:26:04;;;;;;;11.57;4.00;;;30.90;84.80;;;;;;4175680;28;20083;-61
2023/07/12 10:28:28;;;;;;;4.07;3.50;;;31.00;85.00;;;;;;4177062;28;20029;-62
2023/07/12 10:30:30;;;;;;;4.85;3.38;;;31.20;83.40;;;;;;4176257;28;20110;-61
2023/07/12 10:32:40;;;;;;;3.60;3.30;;;31.20;84.60;;;;;;4178934;28;20037;-62
2023/07/12 10:34:46;;;;;;;4.60;3.42;;;31.20;83.10;;;;;;4179451;28;20094;-63
2023/07/12 10:36:54;;;;;;;5.90;3.55;;;31.30;83.20;;;;;;4180021;28;20079;-61